sensor_id;sensor_type;location;lat;lon;timestamp;pressure;altitude;pressure_sealevel;temperature;humidity
11605;BME280;5858;43.076;25.626;2023-12-14T00:01:52;98046.09;;;7.41;100.00
11605;BME280;5858;43.076;25.626;2023-12-14T00:04:19;98121.25;;;8.06;100.00
11605;BME280;5858;43.076;25.626;2023-12-14T00:06:46;98160.94;;;8.29;100.00
11605;BME280;5858;43.076;25.626;2023-12-14T00:09:14;98217.28;;;8.54;100.00
11605;BME280;5858;43.076;25.626;2023-12-14T00:11:43;98218.25;;;8.46;100.00
11605;BME280;5858;43.076;25.626;2023-12-14T00:14:12;98173.00;;;8.25;100.00
11605;BME280;5858;43.076;25.626;2023-12-14T00:16:39;98111.34;;;7.93;100.00
11605;BME280;5858;43.076;25.626;2023-12-14T00:19:06;98163.38;;;8.24;100.00
11605;BME280;5858;43.076;25.626;2023-12-14T00:21:33;98206.91;;;8.72;100.00
11605;BME280;5858;43.076;25.626;2023-12-14T00:24:00;98088.50;;;8.12;99.83
11605;BME280;5858;43.076;25.626;2023-12-14T00:26:30;98072.41;;;7.92;99.84
11605;BME280;5858;43.076;25.626;2023-12-14T00:28:57;98024.88;;;7.54;99.94
11605;BME280;5858;43.076;25.626;2023-12-14T00:31:26;98040.16;;;7.74;100.00
11605;BME280;5858;43.076;25.626;2023-12-14T00:33:53;98151.66;;;8.18;100.00
11605;BME280;5858;43.076;25.626;2023-12-14T00:36:21;98117.66;;;7.85;100.00
11605;BME280;5858;43.076;25.626;2023-12-14T00:38:48;98031.09;;;7.34;100.00
11605;BME280;5858;43.076;25.626;2023-12-14T00:41:15;98131.56;;;8.15;100.00
11605;BME280;5858;43.076;25.626;2023-12-14T00:43:42;98153.38;;;8.32;100.00
11605;BME280;5858;43.076;25.626;2023-12-14T00:46:12;98195.19;;;8.32;100.00
11605;BME280;5858;43.076;25.626;2023-12-14T00:48:42;98217.78;;;8.70;100.00
11605;BME280;5858;43.076;25.626;2023-12-14T00:51:10;98175.16;;;8.42;100.00
11605;BME280;5858;43.076;25.626;2023-12-14T00:53:37;98212.16;;;8.52;100.00
11605;BME280;5858;43.076;25.626;2023-12-14T00:56:06;98199.88;;;8.58;99.73
11605;BME280;5858;43.076;25.626;2023-12-14T00:58:34;98087.41;;;8.00;99.05
11605;BME280;5858;43.076;25.626;2023-12-14T01:01:01;98227.50;;;8.98;98.68
11605;BME280;5858;43.076;25.626;2023-12-14T01:03:28;98164.50;;;8.42;98.70
11605;BME280;5858;43.076;25.626;2023-12-14T01:05:59;98173.84;;;8.60;99.14
11605;BME280;5858;43.076;25.626;2023-12-14T01:08:26;98197.84;;;8.66;99.21
11605;BME280;5858;43.076;25.626;2023-12-14T01:10:53;98193.34;;;8.67;98.88
11605;BME280;5858;43.076;25.626;2023-12-14T01:13:20;98080.03;;;8.02;98.46
11605;BME280;5858;43.076;25.626;2023-12-14T01:15:48;98089.88;;;8.01;98.60
11605;BME280;5858;43.076;25.626;2023-12-14T01:18:15;98199.97;;;8.84;98.98
11605;BME280;5858;43.076;25.626;2023-12-14T01:20:43;98203.63;;;8.76;99.23
11605;BME280;5858;43.076;25.626;2023-12-14T01:23:11;98148.94;;;8.46;99.17
11605;BME280;5858;43.076;25.626;2023-12-14T01:25:39;98069.53;;;7.94;99.29
11605;BME280;5858;43.076;25.626;2023-12-14T01:28:09;98056.44;;;7.92;98.86
11605;BME280;5858;43.076;25.626;2023-12-14T01:30:36;98213.09;;;8.86;99.17
11605;BME280;5858;43.076;25.626;2023-12-14T01:33:03;98195.06;;;8.88;98.27
11605;BME280;5858;43.076;25.626;2023-12-14T01:35:31;98026.09;;;7.86;98.24
11605;BME280;5858;43.076;25.626;2023-12-14T01:38:01;98086.25;;;8.09;98.04
11605;BME280;5858;43.076;25.626;2023-12-14T01:40:29;98130.50;;;8.51;97.64
11605;BME280;5858;43.076;25.626;2023-12-14T01:43:06;98145.75;;;8.64;96.56
11605;BME280;5858;43.076;25.626;2023-12-14T01:45:34;98189.81;;;9.07;96.18
11605;BME280;5858;43.076;25.626;2023-12-14T01:48:01;98181.72;;;8.88;96.19
11605;BME280;5858;43.076;25.626;2023-12-14T01:50:29;98014.84;;;7.91;96.35
11605;BME280;5858;43.076;25.626;2023-12-14T01:52:56;98183.38;;;8.89;96.61
11605;BME280;5858;43.076;25.626;2023-12-14T01:55:24;98036.66;;;8.08;96.84
11605;BME280;5858;43.076;25.626;2023-12-14T01:57:54;98082.19;;;8.19;97.17
11605;BME280;5858;43.076;25.626;2023-12-14T02:00:29;98212.91;;;8.87;97.63
11605;BME280;5858;43.076;25.626;2023-12-14T02:02:57;98053.78;;;7.99;97.44
11605;BME280;5858;43.076;25.626;2023-12-14T02:05:27;98184.16;;;8.76;97.77
11605;BME280;5858;43.076;25.626;2023-12-14T02:07:58;98052.34;;;7.96;97.29
11605;BME280;5858;43.076;25.626;2023-12-14T02:10:31;98088.53;;;8.18;97.96
11605;BME280;5858;43.076;25.626;2023-12-14T02:13:08;98193.78;;;8.77;98.61
11605;BME280;5858;43.076;25.626;2023-12-14T02:15:41;98206.09;;;8.78;98.49
11605;BME280;5858;43.076;25.626;2023-12-14T02:18:12;98146.56;;;8.58;98.81
11605;BME280;5858;43.076;25.626;2023-12-14T02:20:39;98142.97;;;8.37;98.97
11605;BME280;5858;43.076;25.626;2023-12-14T02:23:07;98208.75;;;8.71;99.20
11605;BME280;5858;43.076;25.626;2023-12-14T02:25:39;98191.56;;;8.80;98.93
11605;BME280;5858;43.076;25.626;2023-12-14T02:28:06;98176.78;;;8.78;98.79
11605;BME280;5858;43.076;25.626;2023-12-14T02:30:36;98148.63;;;8.69;98.02
11605;BME280;5858;43.076;25.626;2023-12-14T02:33:03;98098.88;;;8.35;98.39
11605;BME280;5858;43.076;25.626;2023-12-14T02:35:36;98158.66;;;8.60;98.22
11605;BME280;5858;43.076;25.626;2023-12-14T02:38:07;98060.47;;;8.23;97.56
11605;BME280;5858;43.076;25.626;2023-12-14T02:40:34;98138.22;;;8.80;96.62
11605;BME280;5858;43.076;25.626;2023-12-14T02:43:01;98064.84;;;8.37;96.92
11605;BME280;5858;43.076;25.626;2023-12-14T02:45:29;98123.97;;;8.54;97.78
11605;BME280;5858;43.076;25.626;2023-12-14T02:47:56;98177.00;;;8.83;98.16
11605;BME280;5858;43.076;25.626;2023-12-14T02:50:23;98164.25;;;8.72;98.42
11605;BME280;5858;43.076;25.626;2023-12-14T02:52:52;98142.66;;;8.54;98.19
11605;BME280;5858;43.076;25.626;2023-12-14T02:55:21;98115.50;;;8.43;98.28
11605;BME280;5858;43.076;25.626;2023-12-14T02:57:48;98095.63;;;8.39;98.31
11605;BME280;5858;43.076;25.626;2023-12-14T03:00:15;98105.06;;;8.42;98.54
11605;BME280;5858;43.076;25.626;2023-12-14T03:02:43;98097.19;;;8.27;98.04
11605;BME280;5858;43.076;25.626;2023-12-14T03:05:10;98117.34;;;8.36;97.62
11605;BME280;5858;43.076;25.626;2023-12-14T03:07:37;98106.72;;;8.49;98.34
11605;BME280;5858;43.076;25.626;2023-12-14T03:10:05;98070.91;;;8.17;98.49
11605;BME280;5858;43.076;25.626;2023-12-14T03:12:38;98010.44;;;7.70;98.45
11605;BME280;5858;43.076;25.626;2023-12-14T03:15:06;98117.81;;;8.53;98.33
11605;BME280;5858;43.076;25.626;2023-12-14T03:17:39;98140.47;;;8.77;98.41
11605;BME280;5858;43.076;25.626;2023-12-14T03:20:12;97968.97;;;7.54;98.69
11605;BME280;5858;43.076;25.626;2023-12-14T03:22:42;98087.53;;;8.26;99.22
11605;BME280;5858;43.076;25.626;2023-12-14T03:25:09;98092.47;;;8.29;99.06
11605;BME280;5858;43.076;25.626;2023-12-14T03:27:38;98145.78;;;8.70;99.33
11605;BME280;5858;43.076;25.626;2023-12-14T03:30:11;98076.47;;;8.29;98.83
11605;BME280;5858;43.076;25.626;2023-12-14T03:32:38;98105.13;;;8.55;98.12
11605;BME280;5858;43.076;25.626;2023-12-14T03:35:08;98028.06;;;8.12;98.60
11605;BME280;5858;43.076;25.626;2023-12-14T03:37:38;98159.75;;;8.79;98.69
11605;BME280;5858;43.076;25.626;2023-12-14T03:40:07;98080.22;;;8.35;98.93
11605;BME280;5858;43.076;25.626;2023-12-14T03:42:36;98149.47;;;8.76;98.97
11605;BME280;5858;43.076;25.626;2023-12-14T03:45:11;98005.19;;;7.83;98.99
11605;BME280;5858;43.076;25.626;2023-12-14T03:47:38;97922.88;;;7.41;98.51
11605;BME280;5858;43.076;25.626;2023-12-14T03:50:10;98076.13;;;8.39;98.38
11605;BME280;5858;43.076;25.626;2023-12-14T03:52:39;98056.97;;;8.22;97.88
11605;BME280;5858;43.076;25.626;2023-12-14T03:55:11;98133.88;;;8.73;97.87
11605;BME280;5858;43.076;25.626;2023-12-14T03:57:41;98159.75;;;8.86;98.18
11605;BME280;5858;43.076;25.626;2023-12-14T04:00:12;98064.13;;;8.15;98.36
11605;BME280;5858;43.076;25.626;2023-12-14T04:02:40;98076.75;;;8.41;97.72
11605;BME280;5858;43.076;25.626;2023-12-14T04:05:07;98079.81;;;8.38;97.52
11605;BME280;5858;43.076;25.626;2023-12-14T04:07:35;98076.56;;;8.42;97.24
11605;BME280;5858;43.076;25.626;2023-12-14T04:10:06;98058.50;;;8.38;97.13
11605;BME280;5858;43.076;25.626;2023-12-14T04:12:36;98025.84;;;8.23;96.88
11605;BME280;5858;43.076;25.626;2023-12-14T04:15:04;98075.00;;;8.74;96.49
11605;BME280;5858;43.076;25.626;2023-12-14T04:17:33;98015.78;;;8.18;96.11
11605;BME280;5858;43.076;25.626;2023-12-14T04:20:01;98083.22;;;8.79;95.50
11605;BME280;5858;43.076;25.626;2023-12-14T04:22:29;98049.91;;;8.42;95.07
11605;BME280;5858;43.076;25.626;2023-12-14T04:24:56;98052.22;;;8.59;94.77
11605;BME280;5858;43.076;25.626;2023-12-14T04:27:23;98047.94;;;8.64;94.82
11605;BME280;5858;43.076;25.626;2023-12-14T04:29:55;98061.69;;;8.68;95.57
11605;BME280;5858;43.076;25.626;2023-12-14T04:32:22;98098.00;;;8.82;95.82
11605;BME280;5858;43.076;25.626;2023-12-14T04:34:51;98067.00;;;8.61;96.22
11605;BME280;5858;43.076;25.626;2023-12-14T04:37:18;97975.34;;;8.01;96.44
11605;BME280;5858;43.076;25.626;2023-12-14T04:39:45;98044.78;;;8.41;97.19
11605;BME280;5858;43.076;25.626;2023-12-14T04:42:14;98049.88;;;8.36;96.74
11605;BME280;5858;43.076;25.626;2023-12-14T04:44:42;98093.88;;;8.66;97.07
11605;BME280;5858;43.076;25.626;2023-12-14T04:47:10;98137.41;;;8.93;96.29
11605;BME280;5858;43.076;25.626;2023-12-14T04:49:39;97964.03;;;7.93;96.19
11605;BME280;5858;43.076;25.626;2023-12-14T04:52:08;98139.25;;;8.86;96.35
11605;BME280;5858;43.076;25.626;2023-12-14T04:54:35;98121.00;;;8.96;95.77
11605;BME280;5858;43.076;25.626;2023-12-14T04:57:04;98146.50;;;8.99;96.33
11605;BME280;5858;43.076;25.626;2023-12-14T04:59:32;97989.84;;;7.92;96.20
11605;BME280;5858;43.076;25.626;2023-12-14T05:02:05;97985.53;;;7.84;96.43
11605;BME280;5858;43.076;25.626;2023-12-14T05:04:32;98057.50;;;8.45;96.96
11605;BME280;5858;43.076;25.626;2023-12-14T05:06:59;98102.28;;;8.63;97.09
11605;BME280;5858;43.076;25.626;2023-12-14T05:09:32;98054.34;;;8.29;97.04
11605;BME280;5858;43.076;25.626;2023-12-14T05:12:07;98027.84;;;8.14;97.29
11605;BME280;5858;43.076;25.626;2023-12-14T05:14:37;98115.84;;;8.81;97.30
11605;BME280;5858;43.076;25.626;2023-12-14T05:17:04;98140.75;;;9.02;96.66
11605;BME280;5858;43.076;25.626;2023-12-14T05:19:32;97988.03;;;7.99;96.40
11605;BME280;5858;43.076;25.626;2023-12-14T05:22:01;98034.53;;;8.51;96.04
11605;BME280;5858;43.076;25.626;2023-12-14T05:24:30;98024.06;;;8.36;96.08
11605;BME280;5858;43.076;25.626;2023-12-14T05:26:57;98138.50;;;9.12;95.74
11605;BME280;5858;43.076;25.626;2023-12-14T05:29:24;98002.25;;;8.19;95.24
11605;BME280;5858;43.076;25.626;2023-12-14T05:31:53;98152.03;;;9.04;95.60
11605;BME280;5858;43.076;25.626;2023-12-14T05:34:20;97979.28;;;8.12;95.26
11605;BME280;5858;43.076;25.626;2023-12-14T05:36:49;98007.16;;;8.16;95.72
11605;BME280;5858;43.076;25.626;2023-12-14T05:39:17;97994.69;;;8.23;95.44
11605;BME280;5858;43.076;25.626;2023-12-14T05:41:45;98004.53;;;8.29;95.14
11605;BME280;5858;43.076;25.626;2023-12-14T05:44:12;97948.94;;;8.06;95.32
11605;BME280;5858;43.076;25.626;2023-12-14T05:46:39;98135.66;;;9.40;93.79
11605;BME280;5858;43.076;25.626;2023-12-14T05:49:11;98104.78;;;8.84;94.93
11605;BME280;5858;43.076;25.626;2023-12-14T05:51:38;98161.50;;;9.33;93.63
11605;BME280;5858;43.076;25.626;2023-12-14T05:54:10;98091.28;;;8.99;94.05
11605;BME280;5858;43.076;25.626;2023-12-14T05:56:50;98111.81;;;9.19;93.59
11605;BME280;5858;43.076;25.626;2023-12-14T05:59:33;98085.28;;;8.91;93.90
11605;BME280;5858;43.076;25.626;2023-12-14T06:02:02;98001.34;;;8.54;93.52
11605;BME280;5858;43.076;25.626;2023-12-14T06:04:35;98035.84;;;8.88;91.23
11605;BME280;5858;43.076;25.626;2023-12-14T06:07:06;98083.91;;;9.14;89.70
11605;BME280;5858;43.076;25.626;2023-12-14T06:09:39;98122.09;;;9.74;88.55
11605;BME280;5858;43.076;25.626;2023-12-14T06:12:08;98006.72;;;9.13;86.70
11605;BME280;5858;43.076;25.626;2023-12-14T06:14:53;98153.44;;;10.45;82.94
11605;BME280;5858;43.076;25.626;2023-12-14T06:17:22;98102.06;;;10.23;80.69
11605;BME280;5858;43.076;25.626;2023-12-14T06:19:49;98174.72;;;10.71;81.34
11605;BME280;5858;43.076;25.626;2023-12-14T06:22:19;98072.66;;;10.30;80.83
11605;BME280;5858;43.076;25.626;2023-12-14T06:24:48;98060.63;;;10.52;78.02
11605;BME280;5858;43.076;25.626;2023-12-14T06:27:16;98162.75;;;11.19;79.12
11605;BME280;5858;43.076;25.626;2023-12-14T06:29:46;98166.69;;;11.16;78.94
11605;BME280;5858;43.076;25.626;2023-12-14T06:32:14;98130.13;;;11.03;76.89
11605;BME280;5858;43.076;25.626;2023-12-14T06:34:41;98188.13;;;11.48;75.17
11605;BME280;5858;43.076;25.626;2023-12-14T06:37:10;98090.28;;;10.82;75.36
11605;BME280;5858;43.076;25.626;2023-12-14T06:39:38;98082.03;;;10.84;76.14
11605;BME280;5858;43.076;25.626;2023-12-14T06:42:08;98072.38;;;10.89;74.19
11605;BME280;5858;43.076;25.626;2023-12-14T06:44:37;98027.97;;;10.75;72.60
11605;BME280;5858;43.076;25.626;2023-12-14T06:47:32;98179.22;;;11.85;70.93
11605;BME280;5858;43.076;25.626;2023-12-14T06:50:12;98065.59;;;11.12;71.13
11605;BME280;5858;43.076;25.626;2023-12-14T06:52:45;98106.94;;;11.47;68.94
11605;BME280;5858;43.076;25.626;2023-12-14T06:55:13;98071.53;;;11.45;69.34
11605;BME280;5858;43.076;25.626;2023-12-14T06:57:46;98188.28;;;12.27;68.72
11605;BME280;5858;43.076;25.626;2023-12-14T07:00:17;98168.59;;;11.97;69.10
11605;BME280;5858;43.076;25.626;2023-12-14T07:02:44;98137.38;;;11.84;68.63
11605;BME280;5858;43.076;25.626;2023-12-14T07:05:12;98129.13;;;12.04;67.90
11605;BME280;5858;43.076;25.626;2023-12-14T07:07:40;98216.56;;;12.48;67.86
11605;BME280;5858;43.076;25.626;2023-12-14T07:10:08;98121.75;;;12.00;67.50
11605;BME280;5858;43.076;25.626;2023-12-14T07:12:36;98205.03;;;12.66;66.14
11605;BME280;5858;43.076;25.626;2023-12-14T07:15:04;98208.22;;;12.75;67.53
11605;BME280;5858;43.076;25.626;2023-12-14T07:17:33;98069.63;;;11.71;66.45
11605;BME280;5858;43.076;25.626;2023-12-14T07:20:00;98170.06;;;12.54;68.28
11605;BME280;5858;43.076;25.626;2023-12-14T07:22:37;98175.13;;;12.44;67.82
11605;BME280;5858;43.076;25.626;2023-12-14T07:25:09;98187.81;;;12.55;68.65
11605;BME280;5858;43.076;25.626;2023-12-14T07:27:36;98196.44;;;12.57;65.83
11605;BME280;5858;43.076;25.626;2023-12-14T07:30:07;98214.63;;;12.74;66.84
11605;BME280;5858;43.076;25.626;2023-12-14T07:32:36;98247.22;;;12.96;66.76
11605;BME280;5858;43.076;25.626;2023-12-14T07:35:07;98238.06;;;12.85;66.53
11605;BME280;5858;43.076;25.626;2023-12-14T07:37:37;98202.50;;;12.53;66.76
11605;BME280;5858;43.076;25.626;2023-12-14T07:40:12;98248.63;;;12.43;67.79
11605;BME280;5858;43.076;25.626;2023-12-14T07:42:46;98245.44;;;12.28;68.95
11605;BME280;5858;43.076;25.626;2023-12-14T07:45:16;98061.34;;;11.04;69.97
11605;BME280;5858;43.076;25.626;2023-12-14T07:47:51;98257.56;;;12.12;71.32
11605;BME280;5858;43.076;25.626;2023-12-14T07:50:21;98119.63;;;11.02;72.60
11605;BME280;5858;43.076;25.626;2023-12-14T07:52:55;98249.69;;;11.92;73.62
11605;BME280;5858;43.076;25.626;2023-12-14T07:55:49;98137.13;;;11.04;73.43
11605;BME280;5858;43.076;25.626;2023-12-14T07:58:57;98234.94;;;11.70;74.46
11605;BME280;5858;43.076;25.626;2023-12-14T08:01:46;98095.41;;;10.84;74.38
11605;BME280;5858;43.076;25.626;2023-12-14T08:04:33;98104.66;;;10.88;76.07
11605;BME280;5858;43.076;25.626;2023-12-14T08:10:33;98159.28;;;10.73;75.08
11605;BME280;5858;43.076;25.626;2023-12-14T08:13:20;98277.31;;;11.10;74.81
11605;BME280;5858;43.076;25.626;2023-12-14T08:15:55;98218.63;;;10.37;73.04
11605;BME280;5858;43.076;25.626;2023-12-14T08:18:26;98173.47;;;9.57;74.64
11605;BME280;5858;43.076;25.626;2023-12-14T08:20:55;98330.94;;;10.37;76.26
11605;BME280;5858;43.076;25.626;2023-12-14T08:23:22;98249.69;;;9.72;76.20
11605;BME280;5858;43.076;25.626;2023-12-14T08:25:55;98209.56;;;9.33;76.87
11605;BME280;5858;43.076;25.626;2023-12-14T08:28:27;98183.88;;;9.19;76.76
11605;BME280;5858;43.076;25.626;2023-12-14T08:30:55;98376.63;;;10.49;77.30
11605;BME280;5858;43.076;25.626;2023-12-14T08:33:23;98243.72;;;9.51;75.25
11605;BME280;5858;43.076;25.626;2023-12-14T08:35:50;98208.53;;;9.34;76.08
11605;BME280;5858;43.076;25.626;2023-12-14T08:38:25;98388.97;;;10.63;75.12
11605;BME280;5858;43.076;25.626;2023-12-14T08:40:52;98391.22;;;10.80;74.16
11605;BME280;5858;43.076;25.626;2023-12-14T08:43:24;98328.69;;;10.34;74.05
11605;BME280;5858;43.076;25.626;2023-12-14T08:45:51;98381.13;;;10.82;74.90
11605;BME280;5858;43.076;25.626;2023-12-14T08:48:34;98294.34;;;10.51;74.94
11605;BME280;5858;43.076;25.626;2023-12-14T08:51:15;98342.22;;;10.79;74.26
11605;BME280;5858;43.076;25.626;2023-12-14T08:53:51;98262.25;;;10.18;73.96
11605;BME280;5858;43.076;25.626;2023-12-14T09:00:08;98333.63;;;10.37;74.80
11605;BME280;5858;43.076;25.626;2023-12-14T09:02:38;98342.88;;;10.35;75.44
11605;BME280;5858;43.076;25.626;2023-12-14T09:05:12;98330.13;;;10.50;75.57
11605;BME280;5858;43.076;25.626;2023-12-14T09:07:59;98335.88;;;10.60;75.65
11605;BME280;5858;43.076;25.626;2023-12-14T09:10:31;98289.00;;;10.31;74.77
11605;BME280;5858;43.076;25.626;2023-12-14T09:12:59;98356.63;;;10.78;74.28
11605;BME280;5858;43.076;25.626;2023-12-14T09:15:33;98359.91;;;10.87;73.72
11605;BME280;5858;43.076;25.626;2023-12-14T09:18:02;98426.38;;;11.23;72.92
11605;BME280;5858;43.076;25.626;2023-12-14T09:20:29;98421.00;;;11.23;72.81
11605;BME280;5858;43.076;25.626;2023-12-14T09:22:56;98479.47;;;11.52;72.34
11605;BME280;5858;43.076;25.626;2023-12-14T09:25:24;98276.44;;;10.32;73.33
11605;BME280;5858;43.076;25.626;2023-12-14T09:27:52;98439.72;;;11.49;73.99
11605;BME280;5858;43.076;25.626;2023-12-14T09:30:21;98391.13;;;11.39;73.45
11605;BME280;5858;43.076;25.626;2023-12-14T09:32:50;98351.44;;;11.10;72.87
11605;BME280;5858;43.076;25.626;2023-12-14T09:35:17;98348.75;;;11.16;71.70
11605;BME280;5858;43.076;25.626;2023-12-14T09:37:46;98333.72;;;11.15;71.35
11605;BME280;5858;43.076;25.626;2023-12-14T09:40:15;98460.00;;;11.90;72.20
11605;BME280;5858;43.076;25.626;2023-12-14T09:42:44;98360.66;;;11.20;71.96
11605;BME280;5858;43.076;25.626;2023-12-14T09:45:23;98432.59;;;11.81;72.80
11605;BME280;5858;43.076;25.626;2023-12-14T09:47:51;98478.44;;;12.18;72.23
11605;BME280;5858;43.076;25.626;2023-12-14T09:50:20;98472.59;;;12.27;72.01
11605;BME280;5858;43.076;25.626;2023-12-14T09:52:48;98464.94;;;12.38;70.83
11605;BME280;5858;43.076;25.626;2023-12-14T09:55:15;98472.81;;;12.33;70.73
11605;BME280;5858;43.076;25.626;2023-12-14T09:57:45;98421.13;;;12.12;70.09
11605;BME280;5858;43.076;25.626;2023-12-14T10:00:34;98433.06;;;12.16;69.89
11605;BME280;5858;43.076;25.626;2023-12-14T10:03:21;98385.44;;;12.12;70.29
11605;BME280;5858;43.076;25.626;2023-12-14T10:05:51;98416.03;;;12.36;70.17
11605;BME280;5858;43.076;25.626;2023-12-14T10:08:21;98417.59;;;12.50;69.78
11605;BME280;5858;43.076;25.626;2023-12-14T10:10:52;98360.69;;;12.10;67.55
11605;BME280;5858;43.076;25.626;2023-12-14T10:13:28;98408.84;;;12.29;67.17
11605;BME280;5858;43.076;25.626;2023-12-14T10:16:04;98518.53;;;12.82;68.48
11605;BME280;5858;43.076;25.626;2023-12-14T10:18:32;98321.56;;;11.64;69.30
11605;BME280;5858;43.076;25.626;2023-12-14T10:21:01;98443.03;;;12.03;70.16
11605;BME280;5858;43.076;25.626;2023-12-14T10:23:28;98439.88;;;12.12;69.88
11605;BME280;5858;43.076;25.626;2023-12-14T10:25:57;98385.59;;;11.79;70.76
11605;BME280;5858;43.076;25.626;2023-12-14T10:28:24;98453.34;;;12.44;70.58
11605;BME280;5858;43.076;25.626;2023-12-14T10:30:52;98510.66;;;12.87;70.51
11605;BME280;5858;43.076;25.626;2023-12-14T10:33:21;98393.31;;;12.38;69.72
11605;BME280;5858;43.076;25.626;2023-12-14T10:35:48;98438.47;;;12.73;69.28
11605;BME280;5858;43.076;25.626;2023-12-14T10:38:24;98357.41;;;12.39;70.41
11605;BME280;5858;43.076;25.626;2023-12-14T10:40:57;98495.44;;;13.31;70.15
11605;BME280;5858;43.076;25.626;2023-12-14T10:43:36;98341.31;;;12.39;68.25
11605;BME280;5858;43.076;25.626;2023-12-14T10:46:05;98430.25;;;12.92;69.13
11605;BME280;5858;43.076;25.626;2023-12-14T10:48:38;98437.41;;;13.23;68.84
11605;BME280;5858;43.076;25.626;2023-12-14T10:51:07;98410.44;;;13.12;68.25
11605;BME280;5858;43.076;25.626;2023-12-14T10:53:35;98495.81;;;13.78;67.96
11605;BME280;5858;43.076;25.626;2023-12-14T10:56:06;98428.81;;;13.40;67.08
11605;BME280;5858;43.076;25.626;2023-12-14T10:58:46;98450.59;;;13.50;67.17
11605;BME280;5858;43.076;25.626;2023-12-14T11:01:14;98371.34;;;12.98;68.21
11605;BME280;5858;43.076;25.626;2023-12-14T11:03:44;98391.13;;;13.03;68.67
11605;BME280;5858;43.076;25.626;2023-12-14T11:06:21;98472.31;;;13.30;69.38
11605;BME280;5858;43.076;25.626;2023-12-14T11:08:56;98460.91;;;13.35;69.58
11605;BME280;5858;43.076;25.626;2023-12-14T11:11:28;98406.84;;;12.75;69.86
11605;BME280;5858;43.076;25.626;2023-12-14T11:13:55;98464.03;;;13.32;70.21
11605;BME280;5858;43.076;25.626;2023-12-14T11:16:23;98442.97;;;13.29;69.62
11605;BME280;5858;43.076;25.626;2023-12-14T11:19:26;98494.88;;;13.66;69.66
11605;BME280;5858;43.076;25.626;2023-12-14T11:22:24;98492.25;;;13.59;69.91
11605;BME280;5858;43.076;25.626;2023-12-14T11:24:54;98428.19;;;13.13;69.89
11605;BME280;5858;43.076;25.626;2023-12-14T11:27:29;98370.44;;;12.85;69.62
11605;BME280;5858;43.076;25.626;2023-12-14T11:29:56;98515.00;;;13.81;69.01
11605;BME280;5858;43.076;25.626;2023-12-14T11:32:27;98369.03;;;12.76;69.24
11605;BME280;5858;43.076;25.626;2023-12-14T11:35:02;98497.03;;;13.57;69.46
11605;BME280;5858;43.076;25.626;2023-12-14T11:37:38;98426.69;;;12.99;68.99
11605;BME280;5858;43.076;25.626;2023-12-14T11:40:10;98532.66;;;13.71;69.75
11605;BME280;5858;43.076;25.626;2023-12-14T11:42:38;98373.44;;;12.71;69.91
11605;BME280;5858;43.076;25.626;2023-12-14T11:45:07;98517.44;;;13.65;68.88
11605;BME280;5858;43.076;25.626;2023-12-14T11:47:38;98509.66;;;13.57;68.92
11605;BME280;5858;43.076;25.626;2023-12-14T11:53:10;98489.28;;;12.99;72.18
11605;BME280;5858;43.076;25.626;2023-12-14T11:55:41;98472.72;;;12.77;73.58
11605;BME280;5858;43.076;25.626;2023-12-14T11:58:12;98348.63;;;11.94;73.81
11605;BME280;5858;43.076;25.626;2023-12-14T12:00:40;98437.13;;;12.32;75.04
11605;BME280;5858;43.076;25.626;2023-12-14T12:03:09;98462.69;;;12.35;76.10
11605;BME280;5858;43.076;25.626;2023-12-14T12:05:37;98473.66;;;12.58;76.76
11605;BME280;5858;43.076;25.626;2023-12-14T12:08:06;98372.44;;;11.71;77.86
11605;BME280;5858;43.076;25.626;2023-12-14T12:10:34;98466.63;;;12.32;78.95
11605;BME280;5858;43.076;25.626;2023-12-14T12:13:02;98391.19;;;11.71;78.81
11605;BME280;5858;43.076;25.626;2023-12-14T12:15:34;98520.81;;;12.79;79.00
11605;BME280;5858;43.076;25.626;2023-12-14T12:18:04;98466.69;;;12.50;79.31
11605;BME280;5858;43.076;25.626;2023-12-14T12:20:32;98417.34;;;12.20;79.40
11605;BME280;5858;43.076;25.626;2023-12-14T12:23:03;98446.00;;;12.26;79.11
11605;BME280;5858;43.076;25.626;2023-12-14T12:25:35;98369.72;;;11.84;78.76
11605;BME280;5858;43.076;25.626;2023-12-14T12:28:04;98468.19;;;12.46;78.28
11605;BME280;5858;43.076;25.626;2023-12-14T12:30:31;98502.72;;;12.68;78.63
11605;BME280;5858;43.076;25.626;2023-12-14T12:32:59;98477.34;;;12.64;77.68
11605;BME280;5858;43.076;25.626;2023-12-14T12:35:29;98548.81;;;13.21;77.44
11605;BME280;5858;43.076;25.626;2023-12-14T12:37:58;98503.09;;;12.71;77.83
11605;BME280;5858;43.076;25.626;2023-12-14T12:40:25;98562.72;;;13.11;78.16
11605;BME280;5858;43.076;25.626;2023-12-14T12:42:54;98559.59;;;13.14;77.43
11605;BME280;5858;43.076;25.626;2023-12-14T12:45:21;98413.47;;;12.16;77.70
11605;BME280;5858;43.076;25.626;2023-12-14T12:47:54;98391.31;;;11.95;79.24
11605;BME280;5858;43.076;25.626;2023-12-14T12:50:21;98538.38;;;12.75;79.52
11605;BME280;5858;43.076;25.626;2023-12-14T12:52:48;98539.78;;;12.84;79.30
11605;BME280;5858;43.076;25.626;2023-12-14T12:55:19;98446.25;;;12.18;79.72
11605;BME280;5858;43.076;25.626;2023-12-14T12:57:48;98478.47;;;12.49;78.97
11605;BME280;5858;43.076;25.626;2023-12-14T13:00:17;98560.94;;;12.99;79.50
11605;BME280;5858;43.076;25.626;2023-12-14T13:02:47;98584.50;;;12.97;79.84
11605;BME280;5858;43.076;25.626;2023-12-14T13:05:15;98517.69;;;12.50;80.54
11605;BME280;5858;43.076;25.626;2023-12-14T13:07:44;98514.81;;;12.45;80.98
11605;BME280;5858;43.076;25.626;2023-12-14T13:10:15;98464.16;;;11.86;81.48
11605;BME280;5858;43.076;25.626;2023-12-14T13:12:44;98431.63;;;11.62;82.22
11605;BME280;5858;43.076;25.626;2023-12-14T13:15:11;98470.13;;;11.88;82.69
11605;BME280;5858;43.076;25.626;2023-12-14T13:17:43;98590.53;;;12.54;83.28
11605;BME280;5858;43.076;25.626;2023-12-14T13:20:10;98501.16;;;12.09;83.46
11605;BME280;5858;43.076;25.626;2023-12-14T13:22:37;98537.47;;;12.11;83.69
11605;BME280;5858;43.076;25.626;2023-12-14T13:25:05;98517.34;;;11.82;83.62
11605;BME280;5858;43.076;25.626;2023-12-14T13:27:32;98484.84;;;11.52;84.66
11605;BME280;5858;43.076;25.626;2023-12-14T13:30:01;98587.81;;;12.03;85.67
11605;BME280;5858;43.076;25.626;2023-12-14T13:32:29;98531.38;;;11.58;86.31